Погода Любевкона неделю

Любушское воеводство, Польша

16 - 22 июля
  • 16июля
    Сегодня
    +16°
    +26°
    Пасмурно, ливень
    ВремяПогодаТемператураВлажностьДавлениеВетер, м/сВероятность осадков
    02:00Облачно с прояснениями+21°C69 %752 мм2.1 м/с2 %
    05:00Ясно и безоблачно+20°C68 %752 мм2.0 м/с2 %
    08:00Облачно с прояснениями+22°C65 %752 мм2.5 м/с7 %
    11:00Пасмурно, дождь+22°C81 %752 мм2.4 м/с70 %
    14:00Пасмурно, ливень+23°C82 %752 мм2.7 м/с79 %
    17:00Небольшая облачность+24°C77 %752 мм3.2 м/с29 %
    20:00Практически безоблачно+24°C73 %752 мм1.9 м/с15 %
    23:00Практически безоблачно+21°C83 %753 мм1.7 м/с9 %
  • 17июля
    Среда
    +15°
    +24°
    Облачно с прояснениями
    ВремяПогодаТемператураВлажностьДавлениеВетер, м/сВероятность осадков
    02:00Ясно и безоблачно+19°C75 %754 мм2.0 м/с2 %
    05:00Ясно и безоблачно+17°C80 %755 мм1.7 м/с2 %
    08:00Ясно и безоблачно+19°C71 %756 мм2.5 м/с2 %
    11:00Небольшая облачность+22°C56 %757 мм3.6 м/с2 %
    14:00Облачно с прояснениями+24°C49 %757 мм4.2 м/с11 %
    17:00Небольшая облачность+24°C50 %757 мм3.9 м/с9 %
    20:00Практически безоблачно+22°C60 %758 мм2.5 м/с4 %
    23:00Небольшая облачность+19°C79 %759 мм1.6 м/с2 %
  • 18июля
    Четверг
    +16°
    +26°
    Ясно и безоблачно
    ВремяПогодаТемператураВлажностьДавлениеВетер, м/сВероятность осадков
    02:00Ясно и безоблачно+17°C84 %759 мм1.9 м/с2 %
    05:00Ясно и безоблачно+15°C93 %760 мм1.6 м/с2 %
    08:00Ясно и безоблачно+18°C80 %760 мм2.3 м/с2 %
    11:00Небольшая облачность+21°C58 %761 мм2.8 м/с11 %
    14:00Ясно и безоблачно+24°C53 %760 мм3.1 м/с2 %
    17:00Ясно и безоблачно+26°C51 %760 мм2.8 м/с2 %
    20:00Облачно с прояснениями+24°C63 %760 мм2.0 м/с2 %
    23:00Облачно с прояснениями+19°C80 %760 мм1.8 м/с2 %
  • 19июля
    Пятница
    +16°
    +27°
    Практически безоблачно
    ВремяПогодаТемператураВлажностьДавлениеВетер, м/сВероятность осадков
    02:00Облачно с прояснениями+18°C80 %760 мм1.6 м/с2 %
    05:00Ясно и безоблачно+16°C90 %760 мм1.4 м/с2 %
    08:00Практически безоблачно+20°C77 %760 мм1.4 м/с2 %
    11:00Практически безоблачно+25°C50 %760 мм2.5 м/с4 %
    14:00Практически безоблачно+26°C46 %759 мм2.9 м/с22 %
    17:00Небольшая облачность и лёгкий дождик+27°C49 %759 мм3.0 м/с16 %
    20:00Ясно и безоблачно+24°C62 %758 мм2.3 м/с7 %
    23:00Ясно и безоблачно+20°C72 %758 мм1.8 м/с2 %
  • 20июля
    Суббота
    +18°
    +28°
    Небольшая облачность
    ВремяПогодаТемператураВлажностьДавлениеВетер, м/сВероятность осадков
    02:00Ясно и безоблачно+17°C81 %758 мм1.7 м/с2 %
    05:00Практически безоблачно+16°C93 %758 мм1.3 м/с2 %
    08:00Ясно и безоблачно+19°C75 %757 мм1.6 м/с2 %
    11:00Ясно и безоблачно+24°C55 %757 мм2.1 м/с3 %
    14:00Небольшая облачность+27°C47 %756 мм2.2 м/с14 %
    17:00Облачно с прояснениями+28°C44 %755 мм2.6 м/с17 %
    20:00Ясно и безоблачно+26°C55 %754 мм2.5 м/с2 %
    23:00Ясно и безоблачно+21°C64 %754 мм2.0 м/с2 %
Мы используем cookies
Соглашаюсь